Latest Coastal Weather Observations for Cape Jaffa

IDS60701

Issued at 10:45 pm CST Sunday 20 April 2014 (issued every 10 minutes, with the page automatically refreshed every 10 minutes)

About coastal observations | Map of coastal stations | Coastal observations for SA | Marine services | Other Formats
Station Details ID: 026095 Name: THE LIMESTONE Lat: -36.97 Lon: 139.72 Height: 17.0 m
Data from the previous 72 hours. | See also: Recent months at Cape Jaffa
Date/Time
CST
Temp

°C
Wind Pressure Rain
since 9am
mm
Weather Cloud Vis
km
Sea
Height
m
Swell
Dir
 
Speed
knots
Gust
knots
hPa Trend Height
m
Period
s
Dir
20/10:30pm 13.5 SW 0 0 1018.0 - 0.0 - - - - - - -
20/10:00pm 13.7 SW 2 3 1018.0 - 0.0 - - - - - - -
20/09:30pm 13.3 WSW 3 4 1018.0 - 0.0 - - - - - - -
20/09:00pm 13.6 WSW 3 4 1018.0 - 0.0 - - - - - - -
20/08:30pm 13.8 W 3 3 1018.0 - 0.0 - - - - - - -
20/08:00pm 14.0 W 4 5 1018.0 - 0.0 - - - - - - -
20/07:30pm 14.2 W 4 5 1017.8 - 0.0 - - - - - - -
20/07:00pm 14.3 WSW 6 7 1017.8 - 0.0 - - - - - - -
20/06:30pm 14.6 WSW 5 6 1017.3 - 0.0 - - - - - - -
20/06:00pm 15.6 WSW 8 10 1017.1 - 0.0 - - - - - - -
20/05:30pm 15.9 NW 6 9 1017.0 - 0.0 - - - - - - -
20/05:00pm 16.6 NW 9 12 1016.8 - 0.0 - - - - - - -
20/04:30pm 16.8 NNW 9 12 1016.7 - 0.0 - - - - - - -
20/04:00pm 17.2 NNW 11 14 1016.6 - 0.0 - - - - - - -
20/03:30pm 17.3 NNW 12 15 1016.6 - 0.0 - - - - - - -
20/03:00pm 17.0 NNW 12 14 1016.5 - 0.0 - - - - - - -
20/02:30pm 14.9 WNW 11 20 1016.6 - 0.0 - - - - - - -
20/02:00pm 17.6 NW 12 17 1016.6 - 0.0 - - - - - - -
20/01:30pm 17.3 NW 13 20 1016.6 - 0.0 - - - - - - -
20/01:00pm 18.5 NW 14 18 1016.8 - 0.0 - - - - - - -
20/12:30pm 20.5 NNW 13 17 1017.0 - 0.0 - - - - - - -
20/12:00pm 18.4 NNW 13 17 1017.3 - 0.0 - - - - - - -
20/11:30am 18.6 NNW 14 18 1017.6 - 0.0 - - - - - - -
20/11:00am 18.2 N 15 19 1017.6 - 0.0 - - - - - - -
20/10:30am 18.6 N 14 17 1017.7 - 0.0 - - - - - - -
20/10:00am 17.9 NNW 13 17 1018.0 - 0.0 - - - - - - -
20/09:30am 17.8 NNW 14 18 1018.1 - 0.0 - - - - - - -
20/09:00am 16.7 NNW 13 16 1018.0 - - - - - - - - -
20/08:30am 16.5 NNW 12 15 1017.9 - - - - - - - - -
20/08:00am 15.9 NNW 13 16 1017.7 - - - - - - - - -
20/07:30am 15.7 NNW 13 17 1017.3 - - - - - - - - -
20/07:00am 15.5 NNW 13 16 1017.1 - - - - - - - - -
20/06:30am 15.4 NNW 13 17 1017.1 - - - - - - - - -
20/06:00am 15.2 NNW 13 17 1016.7 - - - - - - - - -
20/05:30am 15.2 NNW 11 14 1016.7 - - - - - - - - -
20/05:00am 15.1 N 10 13 1016.5 - - - - - - - - -
20/04:30am 15.1 N 10 13 1016.5 - - - - - - - - -
20/03:30am 14.7 N 8 11 1016.5 - 0.0 - - - - - - -
20/03:00am 14.6 N 8 11 1016.5 - 0.0 - - - - - - -
20/02:30am 14.0 N 5 6 1016.8 - 0.0 - - - - - - -
20/02:00am 13.2 N 4 5 1016.9 - 0.0 - - - - - - -
20/01:30am 13.3 N 7 9 1017.1 - 0.0 - - - - - - -
20/01:00am 14.5 WNW 6 10 1017.5 - 0.0 - - - - - - -
20/12:30am 14.2 N 5 8 1017.4 - 0.0 - - - - - - -
20/12:00am 13.2 N 4 5 1017.4 - 0.0 - - - - - - -
 
Date/Time
CST
Temp

°C
Wind Pressure Rain
since 9am
mm
Weather Cloud Vis
km
Sea
Height
m
Swell
Dir
 
Speed
knots
Gust
knots
hPa Trend Height
m
Period
s
Dir
19/11:30pm 12.5 E 2 4 1017.7 - 0.0 - - - - - - -
19/11:00pm 12.4 SE 1 3 1018.0 - 0.0 - - - - - - -
19/10:30pm 12.2 E 2 3 1018.3 - 0.0 - - - - - - -
19/10:00pm 12.3 ENE 4 5 1018.6 - 0.0 - - - - - - -
19/09:30pm 12.6 ENE 5 6 1018.5 - 0.0 - - - - - - -
19/09:00pm 12.6 NE 4 4 1018.7 - 0.0 - - - - - - -
19/08:30pm 13.3 CALM 0 2 1018.8 - 0.0 - - - - - - -
19/08:00pm 13.4 N 1 2 1018.9 - 0.0 - - - - - - -
19/07:30pm 13.3 N 1 2 1019.1 - 0.0 - - - - - - -
19/07:00pm 13.4 N 4 5 1019.0 - 0.0 - - - - - - -
19/06:30pm 13.1 N 4 5 1019.0 - 0.0 - - - - - - -
19/06:00pm 12.8 N 5 6 1019.1 - 0.0 - - - - - - -
19/05:30pm 14.1 NW 3 5 1019.1 - 0.0 - - - - - - -
19/05:00pm 14.8 NW 3 4 1019.2 - 0.0 - - - - - - -
19/04:30pm 14.9 NW 4 5 1019.3 - 0.0 - - - - - - -
19/04:00pm 14.9 NW 5 6 1019.6 - 0.0 - - - - - - -
19/03:30pm 15.2 NNW 6 7 1019.7 - 0.0 - - - - - - -
19/03:00pm 15.4 NNW 7 10 1019.8 - 0.0 - - - - - - -
19/02:30pm 15.6 NNW 8 11 1019.9 - 0.0 - - - - - - -
19/02:00pm 16.0 NNW 10 13 1020.0 - 0.0 - - - - - - -
19/01:30pm 16.4 WSW 5 8 1020.1 - 0.0 - - - - - - -
19/01:00pm 16.6 W 5 11 1020.6 - 0.0 - - - - - - -
19/12:30pm 16.8 WSW 6 9 1021.0 - 0.0 - - - - - - -
19/12:00pm 16.6 W 5 8 1021.5 - 0.0 - - - - - - -
19/11:30am 16.7 W 5 9 1021.9 - 0.0 - - - - - - -
19/11:00am 15.5 WSW 2 6 1022.2 - 0.0 - - - - - - -
19/10:30am 15.6 WNW 3 5 1022.6 - 0.0 - - - - - - -
19/10:00am 15.7 SSW 6 9 1022.7 - 0.0 - - - - - - -
19/09:30am 15.6 SSW 8 10 1022.8 - 0.0 - - - - - - -
19/09:00am 15.4 SSW 7 9 1022.8 - 0.0 - - - - - - -
19/08:30am 14.8 S 8 10 1022.8 - 0.0 - - - - - - -
19/08:00am 14.2 S 7 10 1022.7 - 0.0 - - - - - - -
19/07:30am 12.8 E 2 2 1022.5 - 0.0 - - - - - - -
19/07:00am 13.1 CALM 0 0 1022.2 - 0.0 - - - - - - -
19/06:30am 13.0 S 1 4 1022.2 - 0.0 - - - - - - -
19/06:00am 13.4 CALM 0 0 1022.1 - 0.0 - - - - - - -
19/05:30am 13.6 SW 3 3 1022.0 - 0.0 - - - - - - -
19/05:00am 13.9 S 5 6 1021.9 - 0.0 - - - - - - -
19/04:30am 14.2 SW 6 9 1021.9 - 0.0 - - - - - - -
19/04:00am 13.8 SSW 8 10 1021.6 - 0.0 - - - - - - -
19/03:30am 14.1 SSW 10 13 1021.6 - 0.0 - - - - - - -
19/03:00am 14.1 SSW 10 12 1021.7 - 0.0 - - - - - - -
19/02:30am 13.1 SSE 3 4 1021.9 - 0.0 - - - - - - -
19/02:00am 13.5 S 7 9 1022.2 - 0.0 - - - - - - -
19/01:30am 13.8 S 8 11 1022.4 - 0.0 - - - - - - -
19/01:00am 12.3 ESE 2 3 1022.4 - 0.0 - - - - - - -
19/12:30am 13.0 SSE 5 6 1022.5 - 0.0 - - - - - - -
19/12:00am 13.7 S 10 13 1022.6 - 0.0 - - - - - - -
 
Date/Time
CST
Temp

°C
Wind Pressure Rain
since 9am
mm
Weather Cloud Vis
km
Sea
Height
m
Swell
Dir
 
Speed
knots
Gust
knots
hPa Trend Height
m
Period
s
Dir
18/11:30pm 11.3 SSE 1 2 1022.7 - 0.0 - - - - - - -
18/11:00pm 11.8 SE 2 4 1022.8 - 0.0 - - - - - - -
18/10:30pm 12.2 SE 2 3 1023.2 - 0.0 - - - - - - -
18/10:00pm 12.2 ESE 2 2 1023.3 - 0.0 - - - - - - -
18/09:30pm 12.2 ESE 3 5 1023.3 - 0.0 - - - - - - -
18/09:00pm 12.4 SSE 3 4 1023.2 - 0.0 - - - - - - -
18/08:30pm 12.8 SSE 4 6 1023.2 - 0.0 - - - - - - -
18/08:00pm 12.7 SSE 6 7 1023.0 - 0.0 - - - - - - -
18/07:30pm 13.0 S 9 11 1022.7 - 0.0 - - - - - - -
18/07:00pm 13.8 S 11 14 1022.6 - 0.0 - - - - - - -
18/06:30pm 13.9 S 10 13 1022.3 - 0.0 - - - - - - -
18/06:00pm 14.1 SSW 12 16 1022.3 - 0.0 - - - - - - -
18/05:30pm 15.2 SSW 14 16 1022.0 - 0.0 - - - - - - -
18/05:00pm 15.5 SSW 13 17 1022.0 - 0.0 - - - - - - -
18/04:30pm 15.8 SSW 14 17 1021.8 - 0.0 - - - - - - -
18/04:00pm 16.8 SW 15 18 1021.7 - 0.0 - - - - - - -
18/03:30pm 16.9 SSW 16 20 1021.5 - 0.0 - - - - - - -
18/03:00pm 17.7 SSW 17 21 1021.4 - 0.0 - - - - - - -
18/02:30pm 18.0 SSW 18 22 1021.3 - 0.0 - - - - - - -
18/02:00pm 17.9 SSW 17 20 1021.2 - 0.0 - - - - - - -
18/01:30pm 17.7 SSW 19 23 1020.9 - 0.0 - - - - - - -
18/01:00pm 17.7 SSW 17 20 1021.1 - 0.0 - - - - - - -
18/12:30pm 18.2 SSW 17 21 1021.3 - 0.0 - - - - - - -
18/12:00pm 18.0 SSW 15 19 1021.6 - 0.0 - - - - - - -
18/11:30am 18.2 SW 15 19 1021.4 - 0.0 - - - - - - -
18/11:00am 17.8 SSW 16 20 1021.2 - 0.0 - - - - - - -
18/10:30am 17.4 SW 15 19 1021.1 - 0.0 - - - - - - -
18/10:00am 17.1 SSW 16 21 1020.8 - 0.0 - - - - - - -
18/09:30am 16.6 SSW 18 21 1020.6 - 0.0 - - - - - - -
18/09:00am 16.1 SSW 19 24 1020.3 - 1.2 - - - - - - -
18/08:30am 16.2 SSW 15 21 1020.0 - 1.2 - - - - - - -
18/08:00am 15.4 SSW 16 22 1019.7 - 1.2 - - - - - - -
18/07:30am 14.9 SSW 18 24 1019.0 - 1.2 - - - - - - -
18/07:00am 15.0 SSW 19 24 1018.3 - 1.2 - - - - - - -
18/06:30am 14.9 SSW 20 26 1017.8 - 1.2 - - - - - - -
18/06:00am 15.0 SW 15 18 1017.4 - 1.2 - - - - - - -
18/05:30am 14.9 SW 16 23 1017.2 - 1.2 - - - - - - -
18/05:00am 15.0 SW 21 34 1016.8 - 1.2 - - - - - - -
18/04:55am 15.4 WSW 22 34 1016.8 - 1.2 - - - - - - -
18/04:54am 15.7 WSW 24 34 1016.7 - 1.0 - - - - - - -
18/04:30am 16.3 W 12 15 1016.5 - 0.4 - - - - - - -
18/04:00am 15.9 WNW 10 13 1016.2 - 0.4 - - - - - - -
18/03:30am 16.2 WNW 9 13 1016.3 - 0.4 - - - - - - -
18/03:00am 16.1 NW 7 9 1016.0 - 0.4 - - - - - - -
18/02:30am 16.6 WNW 12 16 1016.6 - 0.4 - - - - - - -
18/02:00am 16.6 NW 12 15 1016.8 - 0.4 - - - - - - -
18/01:30am 17.0 NNW 11 15 1017.0 - 0.2 - - - - - - -
18/01:00am 17.0 NNW 11 15 1017.1 - 0.2 - - - - - - -
18/12:30am 16.8 N 10 13 1016.9 - 0.2 - - - - - - -
18/12:00am 16.8 N 10 14 1017.0 - 0.2 - - - - - - -
 
Date/Time
CST
Temp

°C
Wind Pressure Rain
since 9am
mm
Weather Cloud Vis
km
Sea
Height
m
Swell
Dir
 
Speed
knots
Gust
knots
hPa Trend Height
m
Period
s
Dir
17/11:30pm 16.5 N 10 14 1017.2 - 0.2 - - - - - - -
17/11:00pm 16.4 N 10 13 1017.6 - 0.2 - - - - - - -

Other Formats:

Comma delimited format used in spreadsheet applications
http://www.bom.gov.au/fwo/IDS60701/IDS60701.94813.axf

JavaScript Object Notation format (JSON) in row-major order
http://www.bom.gov.au/fwo/IDS60701/IDS60701.94813.json